createdAt,value
2023-02-19T00:04:17.427Z,1020.1
2023-02-19T00:10:22.969Z,1020.1
2023-02-19T00:16:27.953Z,1020.1
2023-02-19T00:22:33.089Z,1020
2023-02-19T00:28:38.621Z,1020
2023-02-19T00:34:44.242Z,1020
2023-02-19T00:40:49.408Z,1020
2023-02-19T00:46:54.784Z,1019.9
2023-02-19T00:52:59.938Z,1019.9
2023-02-19T00:59:05.467Z,1019.8
2023-02-19T01:05:10.617Z,1019.7
2023-02-19T01:11:16.610Z,1019.7
2023-02-19T01:17:22.425Z,1019.7
2023-02-19T01:23:27.369Z,1019.6
2023-02-19T01:29:32.550Z,1019.6
2023-02-19T01:35:37.288Z,1019.5
2023-02-19T01:41:42.603Z,1019.4
2023-02-19T01:47:48.042Z,1019.4
2023-02-19T01:53:53.601Z,1019.4
2023-02-19T01:59:58.623Z,1019.3
2023-02-19T02:06:04.522Z,1019.2
2023-02-19T02:12:09.955Z,1019.2
2023-02-19T02:18:15.213Z,1019.2
2023-02-19T02:24:21.006Z,1019.1
2023-02-19T02:30:26.632Z,1019.1
2023-02-19T02:36:31.616Z,1019
2023-02-19T02:42:36.860Z,1018.9
2023-02-19T02:48:42.317Z,1019
2023-02-19T02:54:47.828Z,1018.9
2023-02-19T03:00:53.077Z,1018.7
2023-02-19T03:06:58.838Z,1018.7
2023-02-19T03:13:03.993Z,1018.7
2023-02-19T03:19:09.702Z,1018.7
2023-02-19T03:25:15.535Z,1018.8
2023-02-19T03:31:21.738Z,1018.8
2023-02-19T03:37:27.452Z,1018.8
2023-02-19T03:43:33.905Z,1018.8
2023-02-19T03:49:39.422Z,1018.8
2023-02-19T03:55:45.052Z,1018.7
2023-02-19T04:01:50.456Z,1018.6
2023-02-19T04:07:55.712Z,1018.8
2023-02-19T04:14:01.705Z,1018.6
2023-02-19T04:20:08.298Z,1018.6
2023-02-19T04:26:14.183Z,1018.5
2023-02-19T04:32:19.543Z,1018.4
2023-02-19T04:38:25.019Z,1018.6
2023-02-19T04:44:30.856Z,1018.6
2023-02-19T04:50:36.593Z,1018.6
2023-02-19T04:56:42.543Z,1018.7
2023-02-19T05:02:48.094Z,1018.8
2023-02-19T05:08:53.287Z,1018.8
2023-02-19T05:14:59.260Z,1018.8
2023-02-19T05:21:05.454Z,1018.8
2023-02-19T05:27:11.427Z,1018.7
2023-02-19T05:33:17.418Z,1018.8
2023-02-19T05:39:23.173Z,1018.9
2023-02-19T05:45:28.182Z,1018.9
2023-02-19T05:51:33.291Z,1018.9
2023-02-19T05:57:38.662Z,1019.1
2023-02-19T06:03:47.412Z,1019.1
2023-02-19T06:09:53.488Z,1019.1
2023-02-19T06:15:58.166Z,1019.3
2023-02-19T06:22:04.463Z,1019.2
2023-02-19T06:28:10.229Z,1019.4
2023-02-19T06:34:15.230Z,1019.4
2023-02-19T06:40:21.381Z,1019.5
2023-02-19T06:46:26.973Z,1019.6
2023-02-19T06:52:32.413Z,1019.6
2023-02-19T06:58:37.557Z,1019.6
2023-02-19T07:04:43.293Z,1019.6
2023-02-19T07:10:48.883Z,1019.7
2023-02-19T07:16:54.693Z,1019.9
2023-02-19T07:23:00.008Z,1020
2023-02-19T07:29:04.755Z,1020.1
2023-02-19T07:35:10.556Z,1020.2
2023-02-19T07:41:16.046Z,1020.2
2023-02-19T07:47:21.292Z,1020.2
2023-02-19T07:53:26.056Z,1020.3
2023-02-19T07:59:31.398Z,1020.3
2023-02-19T08:05:36.764Z,1020.4
2023-02-19T08:11:41.766Z,1020.4
2023-02-19T08:17:47.030Z,1020.5
2023-02-19T08:23:52.883Z,1020.6
2023-02-19T08:29:57.840Z,1020.8
2023-02-19T08:36:03.809Z,1020.8
2023-02-19T08:42:09.334Z,1020.9
2023-02-19T08:48:14.623Z,1020.9
2023-02-19T08:54:19.835Z,1020.9
2023-02-19T09:00:24.717Z,1021
2023-02-19T09:06:30.249Z,1021.1
2023-02-19T09:12:36.181Z,1021.3
2023-02-19T09:18:41.942Z,1021.3
2023-02-19T09:24:47.295Z,1021.4
2023-02-19T09:30:51.946Z,1021.4
2023-02-19T09:36:57.500Z,1021.3
2023-02-19T09:43:03.803Z,1021.4
2023-02-19T09:49:09.572Z,1021.4
2023-02-19T09:55:15.588Z,1021.4
2023-02-19T10:01:21.233Z,1021.5
2023-02-19T10:07:26.971Z,1021.6
2023-02-19T10:13:31.765Z,1021.7
2023-02-19T10:19:37.708Z,1021.6
2023-02-19T10:25:42.693Z,1021.6
2023-02-19T10:31:48.519Z,1021.7
2023-02-19T10:37:54.256Z,1021.7
2023-02-19T10:43:59.931Z,1021.7
2023-02-19T10:50:06.320Z,1021.6
2023-02-19T10:56:11.959Z,1021.5
2023-02-19T11:02:17.666Z,1021.5
2023-02-19T11:08:22.869Z,1021.5
2023-02-19T11:14:28.877Z,1021.3
2023-02-19T11:20:34.126Z,1021.3
2023-02-19T11:26:40.014Z,1021.4
2023-02-19T11:32:44.980Z,1021.4
2023-02-19T11:38:50.386Z,1021.5
2023-02-19T11:44:55.541Z,1021.4
2023-02-19T11:51:01.266Z,1021.4
2023-02-19T11:57:06.692Z,1021.5
2023-02-19T12:03:11.832Z,1021.5
2023-02-19T12:09:17.135Z,1021.4
2023-02-19T12:15:22.784Z,1021.5
2023-02-19T12:21:28.356Z,1021.5
2023-02-19T12:27:34.314Z,1021.6
2023-02-19T12:33:40.055Z,1021.6
2023-02-19T12:39:45.387Z,1021.7
2023-02-19T12:45:50.791Z,1021.7
2023-02-19T12:51:55.999Z,1021.9
2023-02-19T12:58:01.490Z,1022.1
2023-02-19T13:04:08.602Z,1022
2023-02-19T13:10:14.089Z,1022
2023-02-19T13:16:20.952Z,1022
2023-02-19T13:22:26.765Z,1022
2023-02-19T13:28:33.032Z,1022.2
2023-02-19T13:34:38.248Z,1022.3
2023-02-19T13:40:43.368Z,1022
2023-02-19T13:46:49.032Z,1021.9
2023-02-19T13:52:54.747Z,1022
2023-02-19T13:59:00.349Z,1022.2
2023-02-19T14:05:05.535Z,1022.1
2023-02-19T14:11:11.455Z,1022
2023-02-19T14:17:17.658Z,1022
2023-02-19T14:23:23.459Z,1022.1
2023-02-19T14:29:29.803Z,1022
2023-02-19T14:35:35.143Z,1022.1
2023-02-19T14:41:40.701Z,1022.2
2023-02-19T14:47:46.607Z,1022.2
2023-02-19T14:53:52.660Z,1022
2023-02-19T14:59:57.940Z,1022.3
2023-02-19T15:06:03.673Z,1022.3
2023-02-19T15:12:08.603Z,1022.3
2023-02-19T15:18:14.267Z,1022.5
2023-02-19T15:24:19.985Z,1022.5
2023-02-19T15:30:26.341Z,1022.5
2023-02-19T15:36:32.326Z,1022.5
2023-02-19T15:42:37.656Z,1022.5
2023-02-19T15:48:43.251Z,1022.6
2023-02-19T15:54:48.506Z,1022.6
2023-02-19T16:00:53.978Z,1022.6
2023-02-19T16:06:59.833Z,1022.7
2023-02-19T16:13:05.581Z,1022.5
2023-02-19T16:19:11.149Z,1022.6
2023-02-19T16:25:16.749Z,1022.7
2023-02-19T16:31:23.341Z,1022.9
2023-02-19T16:37:28.627Z,1022.9
2023-02-19T16:43:34.474Z,1022.9
2023-02-19T16:49:40.191Z,1023
2023-02-19T16:55:45.810Z,1023.2
2023-02-19T17:01:50.623Z,1023.3
2023-02-19T17:07:56.348Z,1023.3
2023-02-19T17:14:01.492Z,1023.5
2023-02-19T17:20:07.118Z,1023.4
2023-02-19T17:26:12.900Z,1023.4
2023-02-19T17:32:19.159Z,1023.6
2023-02-19T17:38:24.626Z,1023.8
2023-02-19T17:44:30.207Z,1023.8
2023-02-19T17:50:36.301Z,1023.7
2023-02-19T17:56:41.554Z,1023.9
2023-02-19T18:02:46.830Z,1024
2023-02-19T18:08:52.194Z,1024.1
2023-02-19T18:14:58.391Z,1024.3
2023-02-19T18:21:03.403Z,1024.4
2023-02-19T18:27:08.804Z,1024.5
2023-02-19T18:33:14.908Z,1024.5
2023-02-19T18:39:20.473Z,1024.7
2023-02-19T18:45:25.916Z,1024.7
2023-02-19T18:51:31.108Z,1024.8
2023-02-19T18:57:36.811Z,1024.8
2023-02-19T19:03:42.219Z,1024.8
2023-02-19T19:09:47.581Z,1024.9
2023-02-19T19:15:54.182Z,1024.9
2023-02-19T19:21:59.758Z,1024.8
2023-02-19T19:28:07.436Z,1024.8
2023-02-19T19:34:13.121Z,1024.9
2023-02-19T19:40:17.929Z,1024.9
2023-02-19T19:46:24.097Z,1024.9
2023-02-19T19:52:30.110Z,1024.9
2023-02-19T19:58:35.577Z,1024.9
2023-02-19T20:04:41.139Z,1024.9
2023-02-19T20:10:47.149Z,1024.9
2023-02-19T20:16:52.555Z,1025
2023-02-19T20:22:57.668Z,1025
2023-02-19T20:29:03.093Z,1025.2
2023-02-19T20:35:08.805Z,1025.1
2023-02-19T20:41:14.695Z,1025.1
2023-02-19T20:47:20.455Z,1025.1
2023-02-19T20:53:25.786Z,1025
2023-02-19T20:59:30.784Z,1025
2023-02-19T21:05:36.524Z,1025.1
2023-02-19T21:11:41.707Z,1025.2
2023-02-19T21:17:47.059Z,1025.2
2023-02-19T21:23:52.356Z,1025.3
2023-02-19T21:29:57.400Z,1025.4
2023-02-19T21:36:03.108Z,1025.4
2023-02-19T21:42:08.378Z,1025.3
2023-02-19T21:48:13.893Z,1025.1
2023-02-19T21:54:19.493Z,1025.2
2023-02-19T22:00:24.629Z,1025.2
2023-02-19T22:06:31.021Z,1025.1
2023-02-19T22:12:37.202Z,1025.1
2023-02-19T22:18:42.980Z,1025.2
2023-02-19T22:24:48.674Z,1025.3
2023-02-19T22:30:54.461Z,1025.3
2023-02-19T22:36:59.284Z,1025.3
2023-02-19T22:43:04.415Z,1025.3
2023-02-19T22:49:09.728Z,1025.4
2023-02-19T22:55:15.179Z,1025.3
2023-02-19T23:01:20.925Z,1025.4
2023-02-19T23:07:26.741Z,1025.4
2023-02-19T23:13:32.505Z,1025.5
2023-02-19T23:19:38.087Z,1025.5
2023-02-19T23:25:44.503Z,1025.7
2023-02-19T23:31:49.942Z,1025.6
2023-02-19T23:37:55.245Z,1025.6
2023-02-19T23:44:01.315Z,1025.5
2023-02-19T23:50:06.693Z,1025.6
2023-02-19T23:56:13.339Z,1025.6
